Friday, October 31, 2014
17:17 UTC
  |  Log In   |  Register Free
Airport Search:

Kingsville Nas Airport
(KNQI)

FAA data valid effective September 18, 2014 - November 13, 2014 (unless otherwise noted).

 
 
 
 
 
 
 
 
 
 
 
 
 
 

Current Aviation Weather for Kingsville Nas Airport (KNQI)

The most recent METAR observation for KNQI was updated at: 1714
METAR Summary (Translated METAR)
KNQI
311656Z 03010KT 6SM -RA BR FEW008 SCT034 BKN110 BKN250 20/20 A3022 RMK AO2 SLP228 T2 SET P0009 T02000200 PNO $
KRBO
311655Z AUTO 02009KT 5SM +RA CLR 22/20 A3023 RMK AO2 LTG DSNT SE AND S T02180196
(17.5 nm NE from KNQI)
KALI
311653Z AUTO 03008KT 10SM BKN049 22/19 A3023 RMK AO2 SLP234 T02170194
(18.2 nm NW from KNQI)
TAF Summary (Translated TAF)
KNQI
3115/0115 VRB06KT 4800 -SHRA BR VCTS SCT010 SCT028CB BKN100 BKN250 QNH3016INS TEMPO 3115/3116 VRB15G25KT 2400 -TSRA BR FEW005 BKN010 BKN026CB OVC100 FM311700 02014G22KT 9999 FEW025 BKN100 BKN250 QNH3013INS FM312000 03013G20KT 9999 FEW030 SCT250 QNH3011INS FM312300 03008KT 9999 FEW250 QNH3013INS AUTOMATED SENSOR METWATCH 3122 TIL 0219 T28/3121Z T12/0113Z FN20044
KALI
(18.2 nm NW from KNQI)
311129Z 3112/0112 03004KT 5SM BR SCT012 BKN100 TEMPO 3112/3115 03015G30KT 2SM TSRA BR BKN012CB OVC100 FM311600 02012KT P6SM BKN050 OVC100 FM312100 03013KT P6SM SCT070 FM010100 02005KT P6SM SKC
  Airport Weather Conditions for KNQI

 Current Weather at NQI
68° F
Light Rain Fog/Mist
Northeast winds at 11.5 mph
NQI NOAA Radar

Pressure: 30.22 in
Humidity: 100%
Wind: Northeast at 11.5 MPH (10 KT)
Dew Point: 68.0°F
Visibility: 6.00 mi


Airport Weather Forecast for KNQI

Translated METAR and TAF for KNQI
Translated METAR for KNQI (1712 UTC 31 October 2014)
found at http://aviationweather.gov/adds/metars/
 
METAR text: KNQI 311656Z 03010KT 6SM -RA BR FEW008 SCT034 BKN110 BKN250 20/20 A3022 RMK AO2 SLP228 T2 SET P0009 T02000200 PNO $
Conditions at: KNQI (KINGSVILLE NAS , TX, US) observed 1656 UTC 31 October 2014
Temperature: 20.0°C (68°F)
Dewpoint: 20.0°C (68°F) [RH = 100%]
Pressure (altimeter): 30.22 inches Hg (1023.5 mb)
[Sea-level pressure: 1022.8 mb]
Winds: from the NNE (30 degrees) at 12 MPH (10 knots; 5.2 m/s)
Visibility: 6 miles (10 km)
Ceiling: 11000 feet AGL
Clouds: few clouds at 800 feet AGL
scattered clouds at 3400 feet AGL
broken clouds at 11000 feet AGL
broken clouds at 25000 feet AGL
Weather: -RA BR  (light rain, mist)
SOME DATA ABOVE MAY BE INACCURATE!!!
"$" is an indication the sensor requires maintenance
Translated TAF for KNQI
Forecast for: KNQI (KINGSVILLE NAS , TX, US)
TAF Text: TAF KNQI 3115/0115 VRB06KT 4800 -SHRA BR VCTS SCT010 SCT028CB BKN100 BKN250 QNH3016INS
Forecast period: 1500 to 1700 UTC 31 October 2014
Forecast type: FROM: standard forecast or significant change
Winds: variable direction winds at 7 MPH (6 knots; 3.1 m/s)
Visibility: 2.98 miles (4.80 km)
Ceiling: 10000 feet AGL
Clouds: scattered clouds at 1000 feet AGL
scattered clouds at 2800 feet AGL
broken clouds at 10000 feet AGL
Weather: -SHRA BR VCTS  (light rain showers, mist, thunderstorm in vicinity)
TAF Text: TEMPO 3115/3116 VRB15G25KT 2400 -TSRA BR FEW005 BKN010 BKN026CB OVC100
Forecast period: 1500 to 1600 UTC 31 October 2014
Forecast type: TEMPORARY: The following changes expected for less than half the time period
Winds: variable direction winds at 17 MPH (15 knots; 7.8 m/s)
gusting to 29 MPH (25 knots; 13.0 m/s)
Visibility: 1.49 miles (2.40 km)
Ceiling: 1000 feet AGL
Clouds: few clouds at 500 feet AGL
broken clouds at 1000 feet AGL
broken clouds at 2600 feet AGL
Weather: -TSRA BR  (light rain associated with thunderstorm(s), mist)
TAF Text: FM311700 02014G22KT 9999 FEW025 BKN100 BKN250 QNH3013INS
Forecast period: 1700 to 2000 UTC 31 October 2014
Forecast type: FROM: standard forecast or significant change
Winds: from the NNE (20 degrees) at 16 MPH (14 knots; 7.3 m/s)
gusting to 25 MPH (22 knots; 11.4 m/s)
Visibility: 6 or more miles (10+ km)
Ceiling: 10000 feet AGL
Clouds: few clouds at 2500 feet AGL
broken clouds at 10000 feet AGL
broken clouds at 25000 feet AGL
Weather: no significant weather forecast for this period
TAF Text: FM312000 03013G20KT 9999 FEW030 SCT250 QNH3011INS
Forecast period: 2000 to 2300 UTC 31 October 2014
Forecast type: FROM: standard forecast or significant change
Winds: from the NNE (30 degrees) at 15 MPH (13 knots; 6.8 m/s)
gusting to 23 MPH (20 knots; 10.4 m/s)
Visibility: 6 or more miles (10+ km)
Clouds: few clouds at 3000 feet AGL
scattered clouds at 25000 feet AGL
Weather: no significant weather forecast for this period
TAF Text: FM312300 03008KT 9999 FEW250 QNH3013INS AUTOMATED SENSOR METWATCH 3122 TIL 0219 T28/3121Z T12/0113Z FN20044
Forecast period: 2300 UTC 31 October 2014 to 1500 UTC 01 November 2014
Forecast type: FROM: standard forecast or significant change
Winds: from the NNE (30 degrees) at 9 MPH (8 knots; 4.2 m/s)
Visibility: 6 or more miles (10+ km)
Clouds: few clouds at 25000 feet AGL
Weather: no significant weather forecast for this period

Find All Airport Services Find A Hotel Find A Rental Car Find A Golf Course Find A Restaurant $100 Hamburger



FBO's on the Field
FBO Company Facility Photos Services Transportation Aviation Fuel Prices: Prices include tax
Catering Weather Repair Courtesy Rental Type 100LL JetA JetA+ MOGAS 8087
 
Add another FBO Facility Photos Catering Weather Repair Courtesy Rental Type 100LL JetA JetA+ MOGAS 8087
Services Transportation Aviation Fuel Prices: Prices include tax
There are no FBO's currently reporting fuel at NQI. List your FBO now


model-print
model-print
model-print
model-print